Del Norte International Airport
MMAN : rendu visible

Aérodrome :











RETROUVEZ-NOUS SUR...

 
LOGIN :

S'inscrire | Disclaimer

   EN    FR    IT 

 









Légende :    VFR   VFR Marginal   IFR   IFR Intensif   IFR Très Intensif
Visi : 
Plafond : 
>= 8 km
>= 3000ft
5 à 8 km
1000 à 3000 ft
1500m à 5 km
500 à 1000 ft
800 à 1500m
200 à 500 ft
< 800m
< 200 ft
Symboles :   Orages  Brouillard  Fortes neiges  Fortes précipitations  Vent > 20 kt






- Altitude de l'aérodrome : 1476 ft
- Code IATA : NTR


MMAN - Del Norte International

DERNIER METAR :
  • 140040Z 34004KT 15SM SKC 24/00 A2994

METARs EXPIRÉS :
  • 132340Z 32005KT 15SM SKC 28/M01 A2994 RMK SLP/// 5//// 9//
  • 132240Z 28009KT 15SM SKC 30/M02 A2992
  • 132140Z 29011KT 15SM SKC 30/M02 A2992

TAF COR TAF MMAN
Valide du 13 à 18h jusqu'au 14 à 18h UTC


131953Z 1318/1418 34012KT P6SM SKC
FM140600 00000KT P6SM SKC



MET'MAP, la Météo Aéronautique d'un coup d'oeil ! - Copyright ORBIFLY Décembre 2007 - Disclaimer

ORBIFLY MET'MAP TEAM :

Programmation & Développement : Alexandra Zaïnal
Sur une idée originale de : Baudouin d'Aumeries
Assistance à la programmation : Marc-Olivier Méhu
Soutien technique & logistique : Manuel Goepfert

Contact : metmap@orbifly.com




SOURCES & CREDITS :

   NOAA       Earth
Advisory